createdAt,value
2022-11-07T00:00:27.999Z,0.82
2022-11-07T00:02:54.884Z,0.80
2022-11-07T00:05:22.176Z,0.80
2022-11-07T00:07:48.814Z,1.00
2022-11-07T00:10:15.628Z,1.20
2022-11-07T00:12:42.241Z,0.80
2022-11-07T00:15:09.233Z,1.00
2022-11-07T00:17:35.846Z,1.00
2022-11-07T00:20:02.466Z,0.90
2022-11-07T00:22:29.042Z,1.05
2022-11-07T00:24:55.635Z,1.00
2022-11-07T00:27:22.319Z,1.10
2022-11-07T00:29:48.935Z,1.10
2022-11-07T00:32:15.522Z,1.00
2022-11-07T00:34:42.291Z,1.00
2022-11-07T00:37:08.899Z,0.90
2022-11-07T00:39:35.456Z,1.30
2022-11-07T00:42:02.123Z,1.70
2022-11-07T00:44:28.694Z,1.13
2022-11-07T00:46:55.294Z,0.65
2022-11-07T00:49:21.885Z,1.00
2022-11-07T00:51:48.785Z,0.75
2022-11-07T00:54:15.449Z,0.90
2022-11-07T00:56:42.203Z,0.90
2022-11-07T00:59:09.197Z,0.90
2022-11-07T01:01:36.164Z,0.93
2022-11-07T01:04:21.782Z,0.82
2022-11-07T01:06:48.498Z,1.05
2022-11-07T01:09:18.515Z,0.98
2022-11-07T01:11:45.900Z,0.85
2022-11-07T01:14:14.449Z,0.75
2022-11-07T01:16:41.874Z,0.95
2022-11-07T01:19:08.942Z,0.63
2022-11-07T01:21:40.900Z,0.70
2022-11-07T01:24:09.257Z,0.70
2022-11-07T01:26:37.293Z,0.60
2022-11-07T01:29:04.402Z,0.95
2022-11-07T01:31:33.598Z,0.68
2022-11-07T01:34:00.720Z,0.50
2022-11-07T01:36:27.892Z,0.80
2022-11-07T01:38:54.711Z,0.60
2022-11-07T01:41:30.926Z,0.68
2022-11-07T01:44:02.241Z,0.55
2022-11-07T01:46:42.568Z,0.50
2022-11-07T01:49:20.559Z,0.50
2022-11-07T01:52:01.194Z,0.40
2022-11-07T01:54:34.150Z,0.57
2022-11-07T01:57:05.929Z,0.50
2022-11-07T01:59:34.565Z,0.65
2022-11-07T02:02:01.362Z,0.50
2022-11-07T02:04:30.312Z,0.85
2022-11-07T02:07:02.873Z,0.40
2022-11-07T02:09:29.977Z,0.57
2022-11-07T02:12:00.849Z,0.50
2022-11-07T02:14:29.327Z,0.60
2022-11-07T02:16:56.339Z,0.50
2022-11-07T02:19:35.831Z,0.50
2022-11-07T02:22:32.090Z,0.52
2022-11-07T02:25:03.072Z,0.50
2022-11-07T02:27:32.004Z,0.60
2022-11-07T02:30:03.270Z,0.57
2022-11-07T02:32:30.628Z,0.63
2022-11-07T02:35:02.223Z,0.70
2022-11-07T02:37:39.671Z,0.50
2022-11-07T02:40:09.396Z,0.50
2022-11-07T02:42:44.655Z,0.40
2022-11-07T02:45:18.827Z,0.40
2022-11-07T02:47:45.847Z,0.40
2022-11-07T02:50:14.899Z,0.60
2022-11-07T02:52:42.190Z,0.60
2022-11-07T02:55:10.775Z,0.45
2022-11-07T02:57:37.778Z,0.50
2022-11-07T03:00:06.278Z,0.60
2022-11-07T03:02:33.084Z,0.50
2022-11-07T03:04:59.789Z,0.50
2022-11-07T03:07:26.498Z,0.80
2022-11-07T03:09:53.094Z,0.65
2022-11-07T03:12:19.671Z,0.65
2022-11-07T03:14:46.392Z,0.50
2022-11-07T03:17:13.142Z,0.60
2022-11-07T03:19:39.778Z,0.45
2022-11-07T03:22:06.359Z,0.40
2022-11-07T03:24:32.927Z,2.65
2022-11-07T03:26:59.571Z,0.55
2022-11-07T03:29:26.182Z,0.68
2022-11-07T03:31:53.123Z,0.70
2022-11-07T03:34:19.730Z,0.82
2022-11-07T03:36:46.332Z,0.60
2022-11-07T03:39:12.919Z,0.47
2022-11-07T03:41:39.483Z,0.50
2022-11-07T03:44:06.376Z,0.70
2022-11-07T03:46:32.949Z,0.57
2022-11-07T03:48:59.612Z,0.60
2022-11-07T03:51:26.218Z,0.60
2022-11-07T03:53:52.778Z,0.68
2022-11-07T03:56:19.378Z,0.95
2022-11-07T03:58:45.959Z,0.60
2022-11-07T04:01:13.332Z,0.50
2022-11-07T04:03:39.956Z,0.70
2022-11-07T04:06:06.831Z,0.70
2022-11-07T04:08:33.671Z,0.50
2022-11-07T04:11:00.233Z,0.60
2022-11-07T04:13:45.303Z,0.80
2022-11-07T04:16:31.316Z,0.90
2022-11-07T04:18:58.759Z,0.75
2022-11-07T04:21:25.381Z,0.70
2022-11-07T04:23:52.026Z,0.80
2022-11-07T04:26:37.344Z,0.63
2022-11-07T04:29:03.976Z,0.60
2022-11-07T04:31:30.758Z,0.90
2022-11-07T04:33:57.451Z,0.70
2022-11-07T04:36:24.058Z,0.90
2022-11-07T04:38:50.712Z,0.70
2022-11-07T04:41:23.845Z,0.80
2022-11-07T04:43:50.929Z,0.75
2022-11-07T04:46:17.600Z,0.75
2022-11-07T04:48:44.646Z,0.88
2022-11-07T04:51:21.414Z,0.70
2022-11-07T04:53:48.183Z,0.80
2022-11-07T04:56:14.767Z,1.08
2022-11-07T04:58:41.373Z,0.98
2022-11-07T05:01:07.965Z,0.70
2022-11-07T05:03:40.378Z,0.95
2022-11-07T05:06:12.195Z,1.23
2022-11-07T05:08:38.760Z,1.17
2022-11-07T05:11:06.020Z,1.00
2022-11-07T05:13:32.593Z,1.13
2022-11-07T05:15:59.212Z,1.10
2022-11-07T05:18:25.785Z,1.63
2022-11-07T05:20:52.488Z,1.38
2022-11-07T05:23:19.964Z,1.33
2022-11-07T05:25:48.893Z,1.02
2022-11-07T05:28:36.845Z,0.80
2022-11-07T05:31:06.218Z,0.70
2022-11-07T05:33:32.889Z,0.88
2022-11-07T05:36:12.538Z,0.77
2022-11-07T05:38:43.324Z,1.35
2022-11-07T05:41:10.808Z,0.90
2022-11-07T05:43:38.676Z,1.08
2022-11-07T05:46:06.061Z,1.17
2022-11-07T05:48:33.251Z,0.80
2022-11-07T05:51:00.561Z,2.05
2022-11-07T05:53:27.928Z,1.30
2022-11-07T05:55:55.317Z,0.98
2022-11-07T05:58:22.134Z,1.05
2022-11-07T06:00:49.593Z,0.93
2022-11-07T06:03:17.144Z,1.20
2022-11-07T06:05:44.002Z,0.93
2022-11-07T06:08:12.664Z,1.10
2022-11-07T06:10:41.027Z,1.20
2022-11-07T06:13:11.520Z,1.42
2022-11-07T06:15:39.491Z,1.33
2022-11-07T06:18:08.259Z,1.73
2022-11-07T06:20:35.294Z,1.42
2022-11-07T06:23:04.408Z,1.40
2022-11-07T06:25:34.101Z,2.13
2022-11-07T06:28:03.230Z,2.20
2022-11-07T06:30:30.002Z,1.52
2022-11-07T06:33:01.121Z,1.67
2022-11-07T06:35:28.360Z,1.50
2022-11-07T06:37:54.965Z,1.27
2022-11-07T06:40:21.634Z,1.25
2022-11-07T06:42:48.233Z,2.13
2022-11-07T06:45:14.932Z,2.47
2022-11-07T06:47:44.199Z,2.10
2022-11-07T06:50:10.773Z,1.90
2022-11-07T06:52:37.394Z,1.50
2022-11-07T06:55:04.268Z,1.92
2022-11-07T06:57:30.844Z,1.83
2022-11-07T06:59:57.436Z,2.30
2022-11-07T07:02:44.409Z,1.80
2022-11-07T07:05:10.588Z,2.50
2022-11-07T07:07:37.194Z,1.55
2022-11-07T07:10:04.324Z,1.60
2022-11-07T07:12:30.998Z,1.80
2022-11-07T07:14:57.641Z,1.40
2022-11-07T07:17:24.298Z,2.50
2022-11-07T07:19:50.895Z,2.78
2022-11-07T07:22:17.486Z,1.85
2022-11-07T07:24:44.112Z,1.52
2022-11-07T07:27:10.721Z,3.38
2022-11-07T07:29:37.324Z,2.47
2022-11-07T07:32:04.092Z,2.17
2022-11-07T07:34:30.777Z,1.80
2022-11-07T07:36:57.419Z,1.67
2022-11-07T07:39:24.518Z,1.73
2022-11-07T07:41:51.265Z,2.05
2022-11-07T07:44:21.109Z,1.48
2022-11-07T07:46:47.810Z,1.08
2022-11-07T07:49:14.538Z,1.08
2022-11-07T07:51:41.221Z,1.88
2022-11-07T07:54:07.809Z,1.10
2022-11-07T07:56:34.619Z,1.02
2022-11-07T07:59:02.536Z,0.93
2022-11-07T08:01:29.231Z,0.60
2022-11-07T08:04:02.135Z,0.73
2022-11-07T08:06:29.599Z,2.05
2022-11-07T08:08:56.492Z,0.85
2022-11-07T08:11:23.460Z,0.68
2022-11-07T08:13:50.107Z,0.60
2022-11-07T08:16:16.758Z,0.75
2022-11-07T08:18:43.542Z,1.33
2022-11-07T08:21:10.533Z,1.80
2022-11-07T08:23:37.205Z,1.55
2022-11-07T08:26:04.669Z,0.85
2022-11-07T08:28:35.304Z,1.15
2022-11-07T08:31:08.199Z,1.17
2022-11-07T08:33:35.607Z,1.00
2022-11-07T08:36:03.679Z,1.02
2022-11-07T08:38:31.581Z,3.25
2022-11-07T08:40:58.640Z,1.02
2022-11-07T08:43:26.024Z,1.00
2022-11-07T08:45:53.896Z,0.88
2022-11-07T08:48:21.383Z,0.60
2022-11-07T08:50:52.916Z,1.10
2022-11-07T08:53:20.035Z,3.38
2022-11-07T08:55:46.921Z,1.23
2022-11-07T08:58:15.121Z,0.88
2022-11-07T09:00:42.544Z,1.00
2022-11-07T09:03:43.564Z,0.80
2022-11-07T09:05:58.402Z,1.00
2022-11-07T09:08:25.285Z,1.33
2022-11-07T09:10:51.911Z,0.90
2022-11-07T09:13:20.612Z,0.90
2022-11-07T09:15:50.919Z,1.13
2022-11-07T09:18:19.266Z,1.30
2022-11-07T09:20:46.014Z,1.10
2022-11-07T09:23:12.687Z,0.90
2022-11-07T09:25:39.373Z,1.20
2022-11-07T09:28:06.150Z,1.33
2022-11-07T09:30:32.907Z,1.35
2022-11-07T09:33:00.827Z,1.30
2022-11-07T09:35:27.696Z,1.15
2022-11-07T09:37:54.561Z,1.27
2022-11-07T09:40:27.051Z,1.10
2022-11-07T09:43:08.973Z,0.95
2022-11-07T09:45:51.247Z,1.10
2022-11-07T09:48:23.429Z,0.98
2022-11-07T09:50:51.484Z,0.75
2022-11-07T09:53:22.657Z,1.10
2022-11-07T09:55:52.720Z,0.70
2022-11-07T09:58:50.703Z,0.75
2022-11-07T10:01:19.481Z,0.88
2022-11-07T10:04:18.176Z,0.90
2022-11-07T10:06:40.217Z,1.08
2022-11-07T10:09:31.815Z,0.80
2022-11-07T10:12:10.744Z,0.80
2022-11-07T10:15:03.405Z,0.82
2022-11-07T10:17:43.283Z,1.10
2022-11-07T10:20:25.047Z,1.13
2022-11-07T10:23:05.512Z,0.68
2022-11-07T10:25:49.867Z,0.70
2022-11-07T10:28:18.965Z,0.73
2022-11-07T10:30:51.701Z,0.70
2022-11-07T10:33:20.920Z,0.47
2022-11-07T10:35:58.762Z,0.70
2022-11-07T10:38:28.411Z,3.47
2022-11-07T10:40:55.964Z,1.75
2022-11-07T10:43:34.247Z,1.02
2022-11-07T10:46:02.717Z,0.70
2022-11-07T10:48:30.049Z,0.80
2022-11-07T10:50:57.738Z,0.77
2022-11-07T10:53:26.055Z,0.82
2022-11-07T10:55:54.367Z,0.70
2022-11-07T10:58:25.629Z,0.50
2022-11-07T11:01:10.118Z,0.50
2022-11-07T11:03:46.047Z,0.68
2022-11-07T11:06:18.694Z,0.52
2022-11-07T11:08:47.531Z,0.60
2022-11-07T11:11:31.369Z,0.57
2022-11-07T11:14:12.036Z,0.40
2022-11-07T11:16:41.435Z,1.05
2022-11-07T11:19:30.851Z,0.52
2022-11-07T11:21:58.913Z,0.60
2022-11-07T11:24:35.604Z,1.13
2022-11-07T11:27:10.069Z,0.68
2022-11-07T11:29:44.841Z,0.85
2022-11-07T11:32:22.459Z,0.95
2022-11-07T11:34:59.739Z,0.60
2022-11-07T11:37:29.411Z,0.50
2022-11-07T11:39:59.061Z,0.50
2022-11-07T11:42:44.314Z,0.50
2022-11-07T11:45:29.086Z,0.60
2022-11-07T11:48:19.916Z,0.70
2022-11-07T11:51:31.591Z,0.55
2022-11-07T11:53:58.340Z,0.90
2022-11-07T11:56:31.022Z,0.77
2022-11-07T11:59:12.586Z,0.50
2022-11-07T12:01:57.273Z,0.70
2022-11-07T12:04:23.939Z,0.50
2022-11-07T12:06:57.484Z,0.75
2022-11-07T12:09:32.995Z,0.70
2022-11-07T12:12:09.540Z,0.68
2022-11-07T12:14:41.929Z,0.73
2022-11-07T12:17:26.912Z,0.63
2022-11-07T12:20:15.537Z,2.08
2022-11-07T12:22:50.622Z,1.63
2022-11-07T12:25:17.262Z,1.05
2022-11-07T12:28:09.778Z,0.80
2022-11-07T12:30:44.162Z,0.82
2022-11-07T12:33:32.145Z,2.60
2022-11-07T12:36:10.410Z,1.30
2022-11-07T12:39:15.830Z,1.20
2022-11-07T12:41:50.200Z,0.98
2022-11-07T12:44:32.076Z,0.68
2022-11-07T12:47:02.475Z,0.50
2022-11-07T12:49:50.826Z,0.95
2022-11-07T12:52:36.304Z,0.50
2022-11-07T12:55:41.980Z,0.70
2022-11-07T12:58:17.370Z,0.55
2022-11-07T13:00:45.287Z,0.50
2022-11-07T13:03:32.670Z,0.73
2022-11-07T13:06:05.767Z,0.50
2022-11-07T13:08:47.509Z,0.80
2022-11-07T13:11:45.625Z,0.43
2022-11-07T13:14:39.115Z,0.77
2022-11-07T13:17:11.982Z,0.50
2022-11-07T13:19:42.941Z,0.77
2022-11-07T13:22:15.795Z,0.80
2022-11-07T13:25:16.362Z,0.80
2022-11-07T13:27:55.181Z,0.47
2022-11-07T13:30:31.201Z,0.88
2022-11-07T13:32:59.395Z,0.77
2022-11-07T13:35:37.322Z,0.70
2022-11-07T13:38:20.531Z,0.57
2022-11-07T13:41:04.456Z,0.95
2022-11-07T13:43:42.248Z,0.55
2022-11-07T13:46:16.716Z,0.88
2022-11-07T13:48:59.803Z,0.50
2022-11-07T13:51:26.449Z,0.85
2022-11-07T13:54:27.023Z,1.58
2022-11-07T13:57:06.769Z,0.60
2022-11-07T13:59:44.446Z,1.40
2022-11-07T14:02:23.209Z,0.90
2022-11-07T14:05:14.793Z,0.80
2022-11-07T14:07:46.292Z,0.70
2022-11-07T14:10:24.949Z,0.70
2022-11-07T14:13:03.953Z,0.80
2022-11-07T14:15:30.770Z,1.17
2022-11-07T14:17:57.604Z,0.63
2022-11-07T14:20:24.442Z,0.70
2022-11-07T14:22:56.567Z,0.60
2022-11-07T14:25:31.827Z,1.48
2022-11-07T14:27:59.725Z,0.60
2022-11-07T14:30:29.763Z,0.80
2022-11-07T14:33:02.209Z,0.65
2022-11-07T14:35:34.419Z,0.77
2022-11-07T14:38:20.199Z,1.17
2022-11-07T14:40:47.284Z,0.50
2022-11-07T14:43:17.831Z,0.80
2022-11-07T14:48:34.218Z,1.33
2022-11-07T14:51:01.291Z,0.80
2022-11-07T14:53:33.039Z,1.30
2022-11-07T14:56:06.081Z,1.05
2022-11-07T14:58:33.029Z,0.90
2022-11-07T15:01:13.404Z,0.90
2022-11-07T15:04:02.094Z,1.30
2022-11-07T15:06:35.543Z,1.92
2022-11-07T15:09:05.865Z,1.10
2022-11-07T15:11:41.562Z,1.40
2022-11-07T15:14:59.235Z,1.52
2022-11-07T15:17:26.609Z,0.90
2022-11-07T15:20:00.505Z,1.00
2022-11-07T15:22:35.364Z,1.05
2022-11-07T15:25:02.116Z,1.95
2022-11-07T15:27:44.152Z,1.92
2022-11-07T15:30:33.370Z,2.75
2022-11-07T15:33:00.283Z,3.03
2022-11-07T15:35:43.524Z,3.53
2022-11-07T15:38:26.274Z,8.90
2022-11-07T15:40:53.240Z,9.52
2022-11-07T15:43:20.430Z,8.00
2022-11-07T15:45:51.457Z,7.88
2022-11-07T15:48:21.588Z,5.40
2022-11-07T15:50:49.740Z,3.60
2022-11-07T15:53:20.417Z,2.67
2022-11-07T15:55:47.763Z,2.58
2022-11-07T15:58:15.542Z,2.00
2022-11-07T16:00:42.823Z,2.40
2022-11-07T16:03:14.140Z,1.90
2022-11-07T16:05:42.043Z,3.30
2022-11-07T16:08:13.516Z,4.38
2022-11-07T16:10:44.378Z,3.80
2022-11-07T16:13:11.015Z,4.38
2022-11-07T16:15:39.455Z,3.28
2022-11-07T16:18:08.587Z,2.85
2022-11-07T16:20:35.283Z,2.47
2022-11-07T16:23:02.421Z,1.80
2022-11-07T16:25:30.429Z,1.95
2022-11-07T16:27:59.586Z,1.83
2022-11-07T16:30:27.979Z,2.53
2022-11-07T16:32:55.276Z,2.25
2022-11-07T16:35:22.535Z,2.45
2022-11-07T16:37:49.182Z,2.90
2022-11-07T16:40:18.968Z,3.10
2022-11-07T16:42:45.813Z,5.10
2022-11-07T16:45:19.121Z,7.40
2022-11-07T16:47:45.899Z,6.30
2022-11-07T16:50:15.002Z,7.65
2022-11-07T16:52:41.799Z,7.20
2022-11-07T16:55:15.065Z,8.30
2022-11-07T16:57:42.002Z,10.00
2022-11-07T17:00:19.156Z,13.75
2022-11-07T17:02:45.978Z,13.65
2022-11-07T17:05:12.928Z,11.48
2022-11-07T17:07:39.687Z,10.00
2022-11-07T17:10:07.888Z,8.27
2022-11-07T17:12:34.518Z,9.75
2022-11-07T17:15:01.201Z,9.07
2022-11-07T17:17:27.837Z,7.30
2022-11-07T17:19:54.516Z,7.10
2022-11-07T17:22:21.202Z,7.68
2022-11-07T17:24:47.792Z,7.85
2022-11-07T17:27:20.996Z,14.57
2022-11-07T17:29:48.076Z,10.80
2022-11-07T17:32:14.831Z,8.07
2022-11-07T17:34:41.489Z,18.08
2022-11-07T17:37:13.769Z,20.10
2022-11-07T17:39:40.488Z,15.57
2022-11-07T17:42:08.816Z,10.45
2022-11-07T17:44:35.647Z,11.25
2022-11-07T17:47:02.742Z,9.95
2022-11-07T17:49:29.438Z,12.02
2022-11-07T17:51:56.616Z,10.57
2022-11-07T17:54:29.119Z,9.55
2022-11-07T17:56:56.263Z,6.47
2022-11-07T17:59:23.266Z,7.80
2022-11-07T18:01:50.083Z,7.32
2022-11-07T18:04:16.785Z,18.10
2022-11-07T18:06:43.619Z,13.30
2022-11-07T18:09:15.927Z,10.70
2022-11-07T18:11:44.903Z,8.55
2022-11-07T18:14:13.426Z,7.93
2022-11-07T18:16:40.674Z,11.48
2022-11-07T18:19:07.454Z,16.65
2022-11-07T18:21:34.284Z,18.25
2022-11-07T18:24:01.068Z,14.93
2022-11-07T18:26:33.854Z,61.03
2022-11-07T18:29:03.291Z,43.08
2022-11-07T18:31:30.087Z,25.40
2022-11-07T18:34:04.047Z,17.98
2022-11-07T18:36:32.924Z,11.50
2022-11-07T18:39:04.899Z,11.10
2022-11-07T18:41:31.785Z,8.32
2022-11-07T18:44:04.201Z,8.75
2022-11-07T18:46:31.752Z,8.75
2022-11-07T18:49:01.637Z,8.80
2022-11-07T18:51:28.472Z,7.93
2022-11-07T18:53:55.150Z,8.80
2022-11-07T18:56:22.125Z,7.40
2022-11-07T18:58:48.851Z,9.45
2022-11-07T19:01:21.731Z,8.63
2022-11-07T19:03:48.623Z,12.15
2022-11-07T19:06:17.501Z,13.65
2022-11-07T19:08:48.959Z,10.35
2022-11-07T19:11:25.288Z,9.73
2022-11-07T19:13:52.943Z,9.35
2022-11-07T19:16:24.512Z,8.68
2022-11-07T19:18:51.638Z,8.35
2022-11-07T19:21:20.737Z,13.05
2022-11-07T19:23:48.322Z,7.35
2022-11-07T19:26:15.096Z,14.20
2022-11-07T19:28:41.738Z,13.00
2022-11-07T19:31:12.824Z,11.32
2022-11-07T19:33:41.576Z,9.38
2022-11-07T19:36:13.404Z,16.38
2022-11-07T19:38:40.621Z,12.55
2022-11-07T19:41:08.475Z,5.70
2022-11-07T19:43:36.027Z,6.22
2022-11-07T19:46:08.286Z,6.63
2022-11-07T19:48:34.953Z,37.40
2022-11-07T19:51:07.058Z,27.20
2022-11-07T19:53:34.217Z,19.73
2022-11-07T19:56:15.681Z,15.23
2022-11-07T19:58:42.684Z,8.82
2022-11-07T20:01:11.143Z,7.53
2022-11-07T20:03:38.036Z,6.43
2022-11-07T20:06:09.712Z,8.98
2022-11-07T20:08:36.430Z,5.88
2022-11-07T20:11:03.317Z,4.82
2022-11-07T20:13:30.093Z,4.50
2022-11-07T20:15:57.720Z,5.25
2022-11-07T20:18:24.882Z,9.57
2022-11-07T20:20:51.571Z,7.43
2022-11-07T20:23:18.638Z,12.68
2022-11-07T20:25:45.533Z,15.00
2022-11-07T20:28:12.172Z,13.48
2022-11-07T20:30:41.837Z,11.38
2022-11-07T20:33:08.535Z,8.60
2022-11-07T20:35:35.178Z,7.25
2022-11-07T20:38:01.994Z,7.30
2022-11-07T20:40:29.586Z,7.65
2022-11-07T20:42:56.345Z,9.63
2022-11-07T20:45:23.024Z,5.78
2022-11-07T20:47:50.565Z,8.68
2022-11-07T20:50:17.353Z,10.85
2022-11-07T20:52:44.232Z,12.80
2022-11-07T20:55:11.770Z,8.65
2022-11-07T20:57:38.573Z,10.63
2022-11-07T21:00:05.777Z,13.55
2022-11-07T21:02:32.495Z,10.00
2022-11-07T21:07:48.114Z,4.70
2022-11-07T21:10:15.105Z,4.72
2022-11-07T21:12:42.819Z,3.92
2022-11-07T21:15:10.355Z,3.83
2022-11-07T21:17:37.047Z,3.22
2022-11-07T21:20:05.042Z,2.92
2022-11-07T21:22:32.039Z,2.53
2022-11-07T21:24:58.790Z,2.47
2022-11-07T21:27:25.540Z,3.97
2022-11-07T21:29:52.276Z,5.68
2022-11-07T21:32:19.037Z,4.50
2022-11-07T21:34:47.250Z,4.53
2022-11-07T21:37:13.972Z,3.50
2022-11-07T21:39:40.602Z,3.33
2022-11-07T21:42:07.302Z,2.88
2022-11-07T21:44:33.925Z,3.55
2022-11-07T21:47:00.665Z,3.30
2022-11-07T21:49:27.383Z,3.17
2022-11-07T21:51:54.048Z,4.20
2022-11-07T21:54:20.697Z,3.30
2022-11-07T21:56:47.340Z,4.13
2022-11-07T21:59:14.126Z,3.83
2022-11-07T22:01:41.616Z,3.85
2022-11-07T22:04:12.443Z,5.53
2022-11-07T22:06:43.514Z,5.63
2022-11-07T22:09:14.315Z,4.75
2022-11-07T22:11:41.139Z,6.75
2022-11-07T22:14:09.564Z,7.32
2022-11-07T22:16:36.614Z,6.22
2022-11-07T22:19:05.249Z,5.80
2022-11-07T22:21:35.245Z,5.60
2022-11-07T22:24:02.277Z,4.10
2022-11-07T22:26:29.871Z,4.20
2022-11-07T22:28:57.055Z,4.57
2022-11-07T22:31:30.990Z,5.03
2022-11-07T22:34:01.041Z,5.38
2022-11-07T22:36:29.199Z,5.70
2022-11-07T22:38:57.824Z,5.28
2022-11-07T22:41:27.082Z,5.00
2022-11-07T22:43:54.847Z,5.65
2022-11-07T22:46:26.689Z,5.60
2022-11-07T22:48:54.435Z,5.20
2022-11-07T22:51:27.684Z,5.57
2022-11-07T22:54:03.561Z,7.53
2022-11-07T22:56:30.966Z,6.82
2022-11-07T22:58:58.212Z,6.10
2022-11-07T23:01:37.944Z,7.07
2022-11-07T23:04:06.322Z,5.90
2022-11-07T23:06:33.565Z,6.22
2022-11-07T23:09:00.528Z,6.32
2022-11-07T23:11:48.048Z,6.07
2022-11-07T23:14:18.352Z,5.40
2022-11-07T23:16:48.428Z,5.93
2022-11-07T23:19:19.148Z,5.70
2022-11-07T23:21:46.289Z,5.60
2022-11-07T23:24:13.977Z,6.05
2022-11-07T23:26:41.330Z,4.70
2022-11-07T23:29:17.890Z,5.35
2022-11-07T23:31:46.950Z,5.10
2022-11-07T23:34:14.789Z,4.78
2022-11-07T23:36:43.979Z,6.22
2022-11-07T23:39:16.794Z,5.47
2022-11-07T23:41:45.635Z,5.90
2022-11-07T23:44:12.773Z,5.85
2022-11-07T23:46:59.012Z,5.78
2022-11-07T23:49:55.017Z,5.03
2022-11-07T23:52:21.857Z,6.53
2022-11-07T23:55:07.391Z,6.50
2022-11-07T23:57:56.769Z,5.80
